Time;durP1;ratioP1;P1;durP2;ratioP2;P2;SDS_P1;SDS_P2;PMS_P1;PMS_P2;Temp;Humidity;BMP_temperature;BMP_pressure;BME280_temperature;BME280_humidity;BME280_pressure;Samples;Min_cycle;Max_cycle;Signal;HPM_P1;HPM_P2
2023/03/03 00:00:36;;;;;;;1.42;0.93;;;;;;;;;;4984952;28;20035;-77
2023/03/03 00:03:04;;;;;;;1.48;0.95;;;;;;;;;;4987351;28;20034;-76
2023/03/03 00:05:32;;;;;;;1.27;1.00;;;;;;;;;;4985762;28;20038;-77
2023/03/03 00:07:58;;;;;;;1.40;1.10;;;;;;;;;;4985045;28;20065;-76
2023/03/03 00:10:24;;;;;;;1.85;1.48;;;;;;;;;;4988057;28;20038;-77
2023/03/03 00:12:50;;;;;;;2.30;1.10;;;;;;;;;;4984426;28;20436;-76
2023/03/03 00:15:18;;;;;;;1.90;1.10;;;;;;;;;;4984077;28;20032;-76
2023/03/03 00:17:44;;;;;;;1.58;1.20;;;;;;;;;;4987443;28;20034;-76
2023/03/03 00:20:26;;;;;;;1.33;1.10;;;;;;;;;;4986059;28;20090;-76
2023/03/03 00:22:52;;;;;;;1.08;1.00;;;;;;;;;;4984267;28;20401;-77
2023/03/03 00:25:18;;;;;;;2.40;1.27;;;;;;;;;;4984616;28;20667;-76
2023/03/03 00:27:44;;;;;;;1.00;0.85;;;;;;;;;;4986757;28;20026;-76
2023/03/03 00:30:23;;;;;;;1.23;0.90;;;;;;;;;;4984797;28;20126;-76
2023/03/03 00:32:49;;;;;;;2.45;1.38;;;;;;;;;;4983309;28;20037;-76
2023/03/03 00:35:34;;;;;;;1.63;1.30;;;;;;;;;;4982828;28;20030;-76
2023/03/03 00:38:01;;;;;;;1.48;1.10;;;;;;;;;;4979256;28;20056;-76
2023/03/03 00:40:32;;;;;;;3.17;1.55;;;;;;;;;;4985143;28;20236;-76
2023/03/03 00:42:59;;;;;;;3.20;1.25;;;;;;;;;;4983616;28;20034;-76
2023/03/03 00:45:45;;;;;;;0.82;0.70;;;;;;;;;;4984785;28;20018;-76
2023/03/03 00:48:22;;;;;;;0.88;0.88;;;;;;;;;;4984406;28;20022;-76
2023/03/03 00:50:48;;;;;;;1.90;1.40;;;;;;;;;;4983298;28;20121;-76
2023/03/03 00:53:19;;;;;;;1.65;0.95;;;;;;;;;;4984297;28;20019;-76
2023/03/03 00:55:46;;;;;;;2.80;1.53;;;;;;;;;;4983640;28;20663;-76
2023/03/03 00:58:12;;;;;;;2.20;1.15;;;;;;;;;;4985336;28;20030;-77
2023/03/03 01:00:38;;;;;;;1.63;1.17;;;;;;;;;;4986884;28;20378;-77
2023/03/03 01:03:08;;;;;;;1.42;0.95;;;;;;;;;;4982868;28;20015;-77
2023/03/03 01:05:35;;;;;;;1.27;1.08;;;;;;;;;;4984309;28;20031;-76
2023/03/03 01:08:02;;;;;;;3.10;1.25;;;;;;;;;;4983790;28;20404;-77
2023/03/03 01:10:30;;;;;;;0.95;0.80;;;;;;;;;;4984714;28;20038;-77
2023/03/03 01:12:56;;;;;;;2.40;1.33;;;;;;;;;;4982160;28;20687;-76
2023/03/03 01:15:22;;;;;;;1.92;1.23;;;;;;;;;;4983945;28;20030;-76
2023/03/03 01:17:48;;;;;;;1.70;1.15;;;;;;;;;;4979789;28;20030;-76
2023/03/03 01:20:15;;;;;;;1.08;0.88;;;;;;;;;;4982851;28;20034;-76
2023/03/03 01:22:41;;;;;;;2.47;1.27;;;;;;;;;;4983689;28;20645;-76
2023/03/03 01:25:10;;;;;;;1.85;1.20;;;;;;;;;;4983564;28;20118;-76
2023/03/03 01:27:36;;;;;;;1.33;1.23;;;;;;;;;;4984117;28;20065;-75
2023/03/03 01:30:03;;;;;;;1.52;1.05;;;;;;;;;;4980259;28;20137;-76
2023/03/03 01:32:29;;;;;;;1.75;1.13;;;;;;;;;;4987981;28;20044;-76
2023/03/03 01:34:55;;;;;;;1.85;1.30;;;;;;;;;;4984626;28;20039;-76
2023/03/03 01:37:21;;;;;;;2.30;1.00;;;;;;;;;;4986245;28;20026;-77
2023/03/03 01:39:48;;;;;;;2.30;1.38;;;;;;;;;;4987832;28;20030;-76
2023/03/03 01:42:14;;;;;;;1.63;1.27;;;;;;;;;;4987114;28;20097;-76
2023/03/03 01:44:43;;;;;;;2.83;1.30;;;;;;;;;;4985603;28;20073;-76
2023/03/03 01:47:28;;;;;;;3.22;1.23;;;;;;;;;;4987067;28;20033;-76
2023/03/03 01:49:59;;;;;;;2.10;1.38;;;;;;;;;;4985784;28;20104;-76
2023/03/03 01:52:30;;;;;;;1.95;1.27;;;;;;;;;;4991088;28;20018;-76
2023/03/03 01:55:01;;;;;;;1.07;0.97;;;;;;;;;;4985398;28;20552;-77
2023/03/03 01:57:27;;;;;;;;;;;;;;;;;;4977734;28;20302;-76
2023/03/03 01:59:54;;;;;;;1.73;1.13;;;;;;;;;;4987645;28;19952;-76
2023/03/03 02:02:27;;;;;;;1.63;0.98;;;;;;;;;;4984433;28;20093;-76
2023/03/03 02:04:53;;;;;;;1.90;1.40;;;;;;;;;;4983109;28;20657;-76
2023/03/03 02:07:19;;;;;;;2.13;1.20;;;;;;;;;;4983186;28;20030;-76
2023/03/03 02:10:05;;;;;;;1.20;0.85;;;;;;;;;;4985146;28;20129;-76
2023/03/03 02:12:34;;;;;;;1.10;0.90;;;;;;;;;;4986428;28;20072;-76
2023/03/03 02:15:00;;;;;;;2.17;1.20;;;;;;;;;;4985516;28;20081;-77
2023/03/03 02:17:26;;;;;;;2.22;1.40;;;;;;;;;;4985136;28;20019;-76
2023/03/03 02:20:10;;;;;;;1.10;1.10;;;;;;;;;;4985556;28;20030;-76
2023/03/03 02:22:41;;;;;;;1.83;1.27;;;;;;;;;;4983022;28;20026;-76
2023/03/03 02:25:10;;;;;;;2.05;1.08;;;;;;;;;;4989124;28;20018;-76
2023/03/03 02:27:36;;;;;;;1.23;1.10;;;;;;;;;;4984040;28;20031;-76
2023/03/03 02:30:16;;;;;;;1.73;1.10;;;;;;;;;;4986205;28;20081;-77
2023/03/03 02:32:42;;;;;;;1.52;1.20;;;;;;;;;;4983059;28;20533;-76
2023/03/03 02:35:28;;;;;;;1.27;0.68;;;;;;;;;;4984321;28;20018;-77
2023/03/03 02:37:56;;;;;;;2.13;0.98;;;;;;;;;;4983162;28;20042;-77
2023/03/03 02:40:23;;;;;;;2.38;1.20;;;;;;;;;;4981412;28;20058;-77
2023/03/03 02:42:51;;;;;;;1.75;1.10;;;;;;;;;;4985175;28;20034;-77
2023/03/03 02:45:17;;;;;;;1.45;1.30;;;;;;;;;;4982084;28;20206;-77
2023/03/03 02:47:51;;;;;;;1.88;1.20;;;;;;;;;;4983873;28;20035;-77
2023/03/03 02:50:17;;;;;;;2.28;1.25;;;;;;;;;;4967746;28;20041;-77
2023/03/03 02:52:43;;;;;;;1.55;1.40;;;;;;;;;;4983918;28;20116;-78
2023/03/03 02:55:09;;;;;;;2.55;1.20;;;;;;;;;;4981277;28;20014;-76
2023/03/03 02:57:35;;;;;;;1.65;1.13;;;;;;;;;;4980699;28;20034;-77
2023/03/03 03:00:01;;;;;;;1.60;1.20;;;;;;;;;;4984331;28;20026;-76
2023/03/03 03:02:42;;;;;;;1.05;0.95;;;;;;;;;;4989131;28;20022;-77
2023/03/03 03:05:09;;;;;;;1.27;1.17;;;;;;;;;;4980375;28;20030;-76
2023/03/03 03:07:35;;;;;;;2.00;1.38;;;;;;;;;;4984634;28;20052;-76
2023/03/03 03:10:01;;;;;;;1.92;1.20;;;;;;;;;;4986040;28;20054;-76
2023/03/03 03:12:27;;;;;;;3.90;1.90;;;;;;;;;;4984154;28;20049;-76
2023/03/03 03:14:52;;;;;;;2.28;1.50;;;;;;;;;;4983437;28;20049;-76
2023/03/03 03:17:18;;;;;;;2.92;1.83;;;;;;;;;;4985119;28;20026;-76
2023/03/03 03:19:44;;;;;;;1.70;1.45;;;;;;;;;;4982024;28;20026;-76
2023/03/03 03:22:10;;;;;;;1.75;1.23;;;;;;;;;;4984067;28;20042;-76
2023/03/03 03:24:36;;;;;;;2.30;1.45;;;;;;;;;;4986378;28;20109;-75
2023/03/03 03:27:02;;;;;;;1.65;0.98;;;;;;;;;;4984817;28;20065;-76
2023/03/03 03:29:28;;;;;;;2.63;1.13;;;;;;;;;;4976731;28;20037;-76
2023/03/03 03:31:54;;;;;;;1.27;1.17;;;;;;;;;;4985060;28;20023;-76
2023/03/03 03:34:20;;;;;;;1.40;0.98;;;;;;;;;;4984978;28;20023;-75
2023/03/03 03:36:46;;;;;;;2.30;1.15;;;;;;;;;;4981224;28;20026;-76
2023/03/03 03:39:12;;;;;;;1.05;0.90;;;;;;;;;;4984680;28;20121;-76
2023/03/03 03:41:38;;;;;;;2.28;1.08;;;;;;;;;;4983958;28;20061;-76
2023/03/03 03:44:04;;;;;;;1.67;1.10;;;;;;;;;;4983132;28;20071;-76
2023/03/03 03:46:30;;;;;;;1.23;1.05;;;;;;;;;;4982105;28;20576;-76
2023/03/03 03:48:56;;;;;;;2.40;1.20;;;;;;;;;;4984603;28;20031;-76
2023/03/03 03:51:22;;;;;;;1.70;1.10;;;;;;;;;;4983005;28;20064;-76
2023/03/03 03:53:48;;;;;;;1.33;1.23;;;;;;;;;;4982028;28;20030;-76
2023/03/03 03:56:14;;;;;;;1.52;1.13;;;;;;;;;;4982674;28;20026;-76
2023/03/03 03:58:41;;;;;;;1.90;1.30;;;;;;;;;;4981680;28;20022;-76
2023/03/03 04:01:07;;;;;;;2.20;1.50;;;;;;;;;;4981222;28;20370;-76
2023/03/03 04:03:36;;;;;;;1.77;1.05;;;;;;;;;;4985285;28;20064;-76
2023/03/03 04:06:02;;;;;;;2.58;1.33;;;;;;;;;;4980817;28;20093;-76
2023/03/03 04:08:27;;;;;;;2.85;1.20;;;;;;;;;;4980208;28;20046;-77
2023/03/03 04:10:53;;;;;;;1.85;1.30;;;;;;;;;;4979486;28;20041;-76
2023/03/03 04:13:19;;;;;;;1.88;1.15;;;;;;;;;;4982318;28;20030;-77
2023/03/03 04:15:45;;;;;;;1.23;0.80;;;;;;;;;;4982043;28;20031;-77
2023/03/03 04:18:12;;;;;;;1.58;1.20;;;;;;;;;;4979950;28;20192;-76
2023/03/03 04:20:39;;;;;;;1.20;1.02;;;;;;;;;;4986442;28;20440;-78
2023/03/03 04:23:05;;;;;;;0.88;0.88;;;;;;;;;;4985790;28;20487;-78
2023/03/03 04:25:37;;;;;;;1.45;0.90;;;;;;;;;;4978806;28;20030;-78
2023/03/03 04:28:03;;;;;;;1.67;0.95;;;;;;;;;;4979366;28;20043;-78
2023/03/03 04:30:30;;;;;;;2.17;1.20;;;;;;;;;;4979329;28;20485;-77
2023/03/03 04:32:56;;;;;;;1.13;0.80;;;;;;;;;;4986365;28;20030;-77
2023/03/03 04:35:22;;;;;;;1.65;1.20;;;;;;;;;;4986800;28;20355;-78
2023/03/03 04:37:48;;;;;;;1.80;1.10;;;;;;;;;;4979249;28;20026;-77
2023/03/03 04:40:15;;;;;;;2.22;0.98;;;;;;;;;;4983610;28;20385;-74
2023/03/03 04:42:41;;;;;;;2.63;1.27;;;;;;;;;;4979609;28;20030;-74
2023/03/03 04:45:07;;;;;;;3.05;1.20;;;;;;;;;;4976416;28;20015;-74
2023/03/03 04:47:33;;;;;;;2.67;1.30;;;;;;;;;;4986770;28;20170;-74
2023/03/03 04:49:59;;;;;;;1.75;0.95;;;;;;;;;;4985208;28;20121;-74
2023/03/03 04:52:25;;;;;;;1.42;1.00;;;;;;;;;;4983034;28;20030;-75
2023/03/03 04:54:51;;;;;;;2.05;0.90;;;;;;;;;;4983624;28;20027;-75
2023/03/03 04:57:17;;;;;;;1.67;1.05;;;;;;;;;;4983370;28;20085;-74
2023/03/03 04:59:43;;;;;;;1.73;1.52;;;;;;;;;;4992082;28;20104;-74
2023/03/03 05:02:09;;;;;;;2.25;1.48;;;;;;;;;;4981183;28;20038;-74
2023/03/03 05:04:35;;;;;;;0.85;0.68;;;;;;;;;;4979892;28;20038;-74
2023/03/03 05:07:01;;;;;;;1.63;1.02;;;;;;;;;;4982814;28;20567;-74
2023/03/03 05:09:27;;;;;;;1.23;0.82;;;;;;;;;;4985015;28;20351;-74
2023/03/03 05:11:53;;;;;;;1.35;0.80;;;;;;;;;;4984725;28;20073;-74
2023/03/03 05:14:19;;;;;;;1.13;0.85;;;;;;;;;;4983345;28;20022;-74
2023/03/03 05:16:45;;;;;;;1.13;0.88;;;;;;;;;;4982160;28;20049;-74
2023/03/03 05:19:11;;;;;;;2.83;0.90;;;;;;;;;;4979735;28;20027;-74
2023/03/03 05:21:41;;;;;;;1.27;0.95;;;;;;;;;;4984297;28;20027;-74
2023/03/03 05:24:07;;;;;;;1.10;1.00;;;;;;;;;;4983407;28;20176;-74
2023/03/03 05:26:33;;;;;;;2.85;1.02;;;;;;;;;;4979174;28;20713;-74
2023/03/03 05:28:59;;;;;;;0.98;0.88;;;;;;;;;;4983759;28;20058;-74
2023/03/03 05:31:26;;;;;;;0.60;0.60;;;;;;;;;;4986936;28;20042;-74
2023/03/03 05:33:52;;;;;;;1.58;1.08;;;;;;;;;;4987183;28;20113;-74
2023/03/03 05:36:18;;;;;;;2.15;1.08;;;;;;;;;;4985721;28;20061;-74
2023/03/03 05:38:44;;;;;;;2.00;0.98;;;;;;;;;;4987276;28;20030;-74
2023/03/03 05:41:10;;;;;;;2.28;0.95;;;;;;;;;;4987204;28;20034;-74
2023/03/03 05:43:36;;;;;;;1.15;1.08;;;;;;;;;;4986691;28;20304;-74
2023/03/03 05:46:02;;;;;;;0.65;0.60;;;;;;;;;;4976013;28;20095;-74
2023/03/03 05:48:29;;;;;;;3.00;1.08;;;;;;;;;;4986624;28;20092;-74
2023/03/03 05:50:57;;;;;;;1.45;0.95;;;;;;;;;;4986644;28;20029;-74
2023/03/03 05:53:23;;;;;;;0.85;0.73;;;;;;;;;;4988859;28;20026;-74
2023/03/03 05:56:18;;;;;;;1.25;0.95;;;;;;;;;;4996632;28;20018;-74
2023/03/03 05:58:44;;;;;;;1.58;0.88;;;;;;;;;;4984575;28;20038;-75
2023/03/03 06:01:10;;;;;;;1.05;0.90;;;;;;;;;;4986220;28;20080;-74
2023/03/03 06:03:36;;;;;;;1.75;0.88;;;;;;;;;;4986865;28;20022;-74
2023/03/03 06:06:31;;;;;;;1.45;1.10;;;;;;;;;;4987112;28;20049;-75
2023/03/03 06:08:57;;;;;;;1.33;0.90;;;;;;;;;;4974837;28;20156;-75
2023/03/03 06:11:23;;;;;;;2.35;1.10;;;;;;;;;;4986846;28;20037;-74
2023/03/03 06:16:38;;;;;;;1.85;0.90;;;;;;;;;;4980755;28;20088;-74
2023/03/03 06:19:04;;;;;;;2.45;1.25;;;;;;;;;;4987092;28;20033;-74
2023/03/03 06:21:30;;;;;;;2.42;1.30;;;;;;;;;;4990430;28;20039;-74
2023/03/03 06:23:56;;;;;;;1.77;1.20;;;;;;;;;;4984967;28;20470;-74
2023/03/03 06:26:22;;;;;;;2.13;1.30;;;;;;;;;;4983525;28;20026;-74
2023/03/03 06:28:49;;;;;;;2.70;1.17;;;;;;;;;;4989409;28;20077;-74
2023/03/03 06:31:15;;;;;;;2.15;1.48;;;;;;;;;;4982245;28;20096;-74
2023/03/03 06:33:41;;;;;;;4.05;1.25;;;;;;;;;;4983403;28;20034;-74
2023/03/03 06:36:07;;;;;;;1.70;1.02;;;;;;;;;;4982817;28;20121;-74
2023/03/03 06:38:33;;;;;;;2.33;1.10;;;;;;;;;;4984231;28;20046;-74
2023/03/03 06:41:01;;;;;;;2.47;1.42;;;;;;;;;;4985916;28;20038;-75
2023/03/03 06:43:27;;;;;;;1.75;0.90;;;;;;;;;;4985609;28;20045;-75
2023/03/03 06:45:53;;;;;;;1.73;1.20;;;;;;;;;;4985220;28;20206;-74
2023/03/03 06:48:19;;;;;;;1.92;1.27;;;;;;;;;;4985292;28;20500;-74
2023/03/03 06:50:45;;;;;;;2.53;1.27;;;;;;;;;;4988716;28;20038;-74
2023/03/03 06:56:13;;;;;;;3.28;1.20;;;;;;;;;;4972453;28;20022;-74
2023/03/03 06:58:39;;;;;;;1.88;1.20;;;;;;;;;;4979895;28;20559;-74
2023/03/03 07:01:10;;;;;;;3.85;1.30;;;;;;;;;;4985569;28;20030;-74
2023/03/03 07:03:36;;;;;;;1.58;0.90;;;;;;;;;;4981063;28;20030;-74
2023/03/03 07:06:08;;;;;;;1.30;1.02;;;;;;;;;;4989655;28;20084;-74
2023/03/03 07:08:34;;;;;;;2.08;1.45;;;;;;;;;;4985166;28;20531;-74
2023/03/03 07:11:05;;;;;;;3.60;0.85;;;;;;;;;;4980516;28;20030;-75
2023/03/03 07:13:32;;;;;;;1.65;1.25;;;;;;;;;;4976815;28;20084;-74
2023/03/03 07:16:03;;;;;;;1.75;0.98;;;;;;;;;;4988578;28;20031;-75
2023/03/03 07:18:31;;;;;;;;;;;;;;;;;;4982183;28;20034;-74
2023/03/03 07:20:57;;;;;;;1.50;0.73;;;;;;;;;;4986751;28;19976;-74
2023/03/03 07:23:37;;;;;;;2.17;1.30;;;;;;;;;;4988280;28;20026;-73
2023/03/03 07:26:03;;;;;;;2.42;0.98;;;;;;;;;;4983501;28;20058;-74
2023/03/03 07:28:32;;;;;;;4.32;1.23;;;;;;;;;;4983497;28;20040;-73
2023/03/03 07:30:58;;;;;;;2.70;1.40;;;;;;;;;;4986300;28;20146;-74
2023/03/03 07:33:28;;;;;;;8.93;1.42;;;;;;;;;;4989004;28;20049;-74
2023/03/03 07:35:56;;;;;;;5.50;2.38;;;;;;;;;;4984225;28;20038;-74
2023/03/03 07:38:30;;;;;;;3.33;1.15;;;;;;;;;;4987208;28;20085;-74
2023/03/03 07:40:57;;;;;;;3.00;1.35;;;;;;;;;;4987924;28;20023;-74
2023/03/03 07:43:28;;;;;;;1.63;1.15;;;;;;;;;;4986401;28;20118;-75
2023/03/03 07:45:58;;;;;;;1.88;1.27;;;;;;;;;;4982639;28;20639;-74
2023/03/03 07:48:42;;;;;;;1.50;1.02;;;;;;;;;;4982065;28;20038;-75
2023/03/03 07:51:22;;;;;;;1.85;0.90;;;;;;;;;;4982932;28;20039;-80
2023/03/03 07:53:48;;;;;;;1.45;1.17;;;;;;;;;;4983963;28;20076;-77
2023/03/03 07:56:34;;;;;;;2.08;1.20;;;;;;;;;;4983958;28;20041;-76
2023/03/03 07:59:02;;;;;;;3.95;1.80;;;;;;;;;;4983494;28;20038;-76
2023/03/03 08:01:41;;;;;;;1.05;0.95;;;;;;;;;;4982451;28;20777;-75
2023/03/03 08:04:30;;;;;;;3.17;1.15;;;;;;;;;;4987120;28;20026;-76
2023/03/03 08:06:57;;;;;;;1.35;0.85;;;;;;;;;;4984122;28;20588;-74
2023/03/03 08:09:26;;;;;;;1.90;1.15;;;;;;;;;;4982841;28;20129;-76
2023/03/03 08:12:12;;;;;;;1.85;1.13;;;;;;;;;;4984928;28;20044;-76
2023/03/03 08:14:38;;;;;;;2.78;0.88;;;;;;;;;;4984360;28;20785;-76
2023/03/03 08:17:14;;;;;;;1.42;1.08;;;;;;;;;;4984869;28;20701;-75
2023/03/03 08:19:40;;;;;;;1.80;1.20;;;;;;;;;;4979753;28;20433;-75
2023/03/03 08:22:14;;;;;;;3.47;1.25;;;;;;;;;;4987829;28;20524;-73
2023/03/03 08:24:47;;;;;;;0.80;0.77;;;;;;;;;;4977750;28;20128;-82
2023/03/03 08:27:13;;;;;;;1.90;1.10;;;;;;;;;;4984292;28;20034;-79
2023/03/03 08:29:39;;;;;;;1.85;1.23;;;;;;;;;;4986636;28;20185;-81
2023/03/03 08:32:05;;;;;;;1.60;1.13;;;;;;;;;;4988372;28;20022;-82
2023/03/03 08:34:31;;;;;;;1.85;0.98;;;;;;;;;;4988163;28;20045;-82
2023/03/03 08:36:57;;;;;;;0.95;0.88;;;;;;;;;;4986568;28;20400;-79
2023/03/03 08:39:43;;;;;;;2.38;1.42;;;;;;;;;;4993647;28;20026;-79
2023/03/03 08:42:09;;;;;;;2.30;0.85;;;;;;;;;;4982495;28;20560;-77
2023/03/03 08:44:36;;;;;;;1.77;1.00;;;;;;;;;;4976139;28;20046;-78
2023/03/03 08:47:02;;;;;;;1.42;1.02;;;;;;;;;;4976094;28;20094;-76
2023/03/03 08:49:28;;;;;;;1.70;0.80;;;;;;;;;;4985499;28;20037;-77
2023/03/03 08:51:59;;;;;;;0.88;0.85;;;;;;;;;;4986120;28;20022;-77
2023/03/03 08:54:25;;;;;;;0.98;0.68;;;;;;;;;;4985855;28;20028;-76
2023/03/03 08:56:51;;;;;;;1.98;0.82;;;;;;;;;;4984995;28;20290;-75
2023/03/03 08:59:19;;;;;;;1.15;0.77;;;;;;;;;;4988382;28;20134;-76
2023/03/03 09:02:06;;;;;;;1.52;0.90;;;;;;;;;;4986027;28;20038;-76
2023/03/03 09:04:31;;;;;;;3.20;1.08;;;;;;;;;;4982880;28;20038;-76
2023/03/03 09:06:57;;;;;;;1.50;0.93;;;;;;;;;;4980950;28;20030;-76
2023/03/03 09:09:23;;;;;;;1.95;0.80;;;;;;;;;;4986108;28;20050;-76
2023/03/03 09:11:49;;;;;;;1.30;0.88;;;;;;;;;;4988395;28;20489;-78
2023/03/03 09:14:16;;;;;;;1.70;0.88;;;;;;;;;;4985716;28;20038;-78
2023/03/03 09:16:53;;;;;;;1.65;1.05;;;;;;;;;;4986344;28;20037;-78
2023/03/03 09:19:22;;;;;;;2.10;0.80;;;;;;;;;;4982711;28;20033;-78
2023/03/03 09:21:48;;;;;;;0.93;0.73;;;;;;;;;;4992822;28;20039;-78
2023/03/03 09:24:21;;;;;;;1.00;0.90;;;;;;;;;;4988075;28;20029;-78
2023/03/03 09:26:59;;;;;;;1.52;0.90;;;;;;;;;;4988801;28;20062;-78
2023/03/03 09:29:28;;;;;;;7.25;0.90;;;;;;;;;;4985858;28;20026;-78
2023/03/03 09:31:54;;;;;;;1.13;0.70;;;;;;;;;;4983664;28;20073;-78
2023/03/03 09:34:22;;;;;;;2.35;1.02;;;;;;;;;;4987029;28;20026;-79
2023/03/03 09:36:48;;;;;;;1.10;0.80;;;;;;;;;;4987379;28;20023;-78
2023/03/03 09:39:22;;;;;;;2.85;0.88;;;;;;;;;;4987188;28;20030;-78
2023/03/03 09:42:04;;;;;;;3.72;0.98;;;;;;;;;;4984345;28;20070;-78
2023/03/03 09:44:41;;;;;;;2.42;1.33;;;;;;;;;;4975785;28;20716;-79
2023/03/03 09:47:28;;;;;;;0.93;0.90;;;;;;;;;;4972853;28;20038;-79
2023/03/03 09:49:56;;;;;;;1.95;0.85;;;;;;;;;;4973612;28;20478;-77
2023/03/03 09:52:40;;;;;;;0.55;0.55;;;;;;;;;;4984247;28;20390;-78
2023/03/03 09:55:26;;;;;;;2.03;0.90;;;;;;;;;;4986115;28;20062;-77
2023/03/03 09:58:04;;;;;;;1.77;0.70;;;;;;;;;;4986925;28;20078;-78
2023/03/03 10:00:38;;;;;;;2.35;1.00;;;;;;;;;;4988342;28;20064;-78
2023/03/03 10:03:16;;;;;;;1.45;0.60;;;;;;;;;;4979791;28;20058;-77
2023/03/03 10:05:48;;;;;;;0.73;0.70;;;;;;;;;;4984842;28;20037;-78
2023/03/03 10:08:38;;;;;;;1.48;0.63;;;;;;;;;;4976882;28;20049;-78
2023/03/03 10:11:10;;;;;;;1.25;1.15;;;;;;;;;;4959488;28;20066;-78
2023/03/03 10:13:55;;;;;;;2.20;1.20;;;;;;;;;;4984061;28;20034;-77
2023/03/03 10:16:31;;;;;;;1.10;0.70;;;;;;;;;;4988089;28;20042;-79
2023/03/03 10:19:14;;;;;;;1.42;0.90;;;;;;;;;;4992334;28;20539;-79
2023/03/03 10:21:48;;;;;;;0.60;0.60;;;;;;;;;;4993641;28;20251;-78
2023/03/03 10:24:26;;;;;;;1.33;0.90;;;;;;;;;;4994050;28;20382;-79
2023/03/03 10:27:03;;;;;;;1.13;0.80;;;;;;;;;;4980317;28;20066;-78
2023/03/03 10:29:32;;;;;;;1.45;0.80;;;;;;;;;;4986845;28;20497;-78
2023/03/03 10:32:25;;;;;;;2.03;1.00;;;;;;;;;;4972333;28;20045;-78
2023/03/03 10:35:05;;;;;;;1.25;0.82;;;;;;;;;;4973700;28;20031;-78
2023/03/03 10:37:49;;;;;;;0.82;0.68;;;;;;;;;;4975233;28;20117;-78
2023/03/03 10:40:38;;;;;;;1.58;1.05;;;;;;;;;;4985230;28;20023;-78
2023/03/03 10:43:15;;;;;;;2.10;1.10;;;;;;;;;;4991974;28;20030;-77
2023/03/03 10:46:00;;;;;;;1.33;0.73;;;;;;;;;;4976075;28;20512;-76
2023/03/03 10:48:33;;;;;;;1.05;0.73;;;;;;;;;;4977358;28;20076;-76
2023/03/03 10:51:02;;;;;;;2.30;0.80;;;;;;;;;;4976312;28;20027;-76
2023/03/03 10:53:28;;;;;;;1.63;0.95;;;;;;;;;;4985133;28;20038;-76
2023/03/03 10:56:13;;;;;;;0.80;0.60;;;;;;;;;;4974187;28;20031;-74
2023/03/03 10:58:54;;;;;;;0.80;0.55;;;;;;;;;;4994319;28;20544;-73
2023/03/03 11:01:24;;;;;;;8.90;0.77;;;;;;;;;;4992321;28;20562;-74
2023/03/03 11:04:05;;;;;;;1.08;0.93;;;;;;;;;;4991621;28;20034;-74
2023/03/03 11:06:46;;;;;;;1.65;0.70;;;;;;;;;;4978972;28;20563;-74
2023/03/03 11:09:31;;;;;;;4.55;0.90;;;;;;;;;;4987338;28;20051;-75
2023/03/03 11:12:02;;;;;;;0.85;0.75;;;;;;;;;;4987556;28;20129;-74
2023/03/03 11:14:31;;;;;;;1.65;1.15;;;;;;;;;;4985421;28;20671;-74
2023/03/03 11:17:06;;;;;;;5.72;1.33;;;;;;;;;;4985998;28;20014;-74
2023/03/03 11:19:44;;;;;;;1.60;1.30;;;;;;;;;;4997617;28;20037;-75
2023/03/03 11:22:10;;;;;;;0.98;0.88;;;;;;;;;;4976719;28;20041;-75
2023/03/03 11:24:36;;;;;;;2.22;1.30;;;;;;;;;;4987098;28;20022;-74
2023/03/03 11:27:08;;;;;;;3.22;1.55;;;;;;;;;;4992172;28;20030;-75
2023/03/03 11:29:50;;;;;;;1.15;0.80;;;;;;;;;;4989695;28;20231;-74
2023/03/03 11:32:26;;;;;;;3.20;1.30;;;;;;;;;;4977668;28;20053;-74
2023/03/03 11:35:07;;;;;;;1.88;1.20;;;;;;;;;;4974787;28;20022;-74
2023/03/03 11:37:52;;;;;;;2.55;1.20;;;;;;;;;;4983589;28;20401;-74
2023/03/03 11:40:24;;;;;;;6.95;1.08;;;;;;;;;;4977719;28;20030;-74
2023/03/03 11:43:00;;;;;;;1.17;0.90;;;;;;;;;;4984198;28;20642;-74
2023/03/03 11:45:30;;;;;;;5.65;1.25;;;;;;;;;;4986711;28;20026;-74
2023/03/03 11:48:27;;;;;;;1.65;0.98;;;;;;;;;;4986261;28;20084;-74
2023/03/03 11:50:59;;;;;;;2.65;1.20;;;;;;;;;;4985368;28;20038;-74
2023/03/03 11:53:28;;;;;;;1.45;1.02;;;;;;;;;;4986507;28;20038;-74
2023/03/03 11:55:57;;;;;;;1.63;1.20;;;;;;;;;;4982389;28;20022;-74
2023/03/03 11:58:29;;;;;;;2.17;0.88;;;;;;;;;;4988253;28;20034;-74
2023/03/03 12:01:04;;;;;;;5.20;1.65;;;;;;;;;;4986267;28;20501;-74
2023/03/03 12:03:36;;;;;;;1.77;1.10;;;;;;;;;;4984254;28;20151;-74
2023/03/03 12:06:10;;;;;;;0.98;0.80;;;;;;;;;;4988218;28;20027;-75
2023/03/03 12:08:36;;;;;;;1.23;1.00;;;;;;;;;;4987893;28;21345;-74
2023/03/03 12:11:06;;;;;;;2.00;0.75;;;;;;;;;;4980886;28;20046;-74
2023/03/03 12:13:49;;;;;;;1.17;1.00;;;;;;;;;;4979386;28;20057;-74
2023/03/03 12:16:21;;;;;;;3.30;1.38;;;;;;;;;;4986625;28;20033;-74
2023/03/03 12:18:57;;;;;;;1.95;1.08;;;;;;;;;;4972617;28;20038;-73
2023/03/03 12:21:31;;;;;;;2.03;1.00;;;;;;;;;;4983184;28;20084;-74
2023/03/03 12:23:57;;;;;;;2.05;1.20;;;;;;;;;;4986355;28;20038;-74
2023/03/03 12:26:29;;;;;;;1.15;0.88;;;;;;;;;;4986080;28;20074;-74
2023/03/03 12:29:17;;;;;;;1.75;1.15;;;;;;;;;;4982417;28;20525;-74
2023/03/03 12:31:53;;;;;;;1.58;1.00;;;;;;;;;;4983436;28;20116;-74
2023/03/03 12:34:30;;;;;;;2.70;1.15;;;;;;;;;;4986952;28;20583;-74
2023/03/03 12:37:05;;;;;;;2.78;1.00;;;;;;;;;;4985879;28;20022;-74
2023/03/03 12:39:50;;;;;;;3.97;1.13;;;;;;;;;;4984040;28;20034;-74
2023/03/03 12:42:45;;;;;;;1.50;1.10;;;;;;;;;;4979976;28;20049;-74
2023/03/03 12:45:29;;;;;;;1.70;0.90;;;;;;;;;;4968144;28;20034;-74
2023/03/03 12:48:07;;;;;;;1.10;1.00;;;;;;;;;;4987150;28;20485;-74
2023/03/03 12:50:41;;;;;;;1.52;1.00;;;;;;;;;;4985407;28;20041;-74
2023/03/03 12:53:15;;;;;;;1.60;0.95;;;;;;;;;;4982470;28;20054;-74
2023/03/03 12:55:55;;;;;;;1.77;1.00;;;;;;;;;;4986308;28;20121;-74
2023/03/03 12:58:39;;;;;;;1.30;0.95;;;;;;;;;;4986819;28;20018;-74
2023/03/03 13:01:14;;;;;;;1.63;0.95;;;;;;;;;;4987283;28;20125;-74
2023/03/03 13:03:44;;;;;;;1.67;1.10;;;;;;;;;;4984002;28;20044;-73
2023/03/03 13:06:29;;;;;;;1.33;0.98;;;;;;;;;;4979082;28;20030;-74
2023/03/03 13:08:54;;;;;;;0.52;0.50;;;;;;;;;;4975713;28;20569;-74
2023/03/03 13:11:29;;;;;;;0.88;0.77;;;;;;;;;;4986208;28;20270;-74
2023/03/03 13:14:02;;;;;;;1.17;1.08;;;;;;;;;;4985688;28;20022;-74
2023/03/03 13:16:31;;;;;;;1.52;0.98;;;;;;;;;;4983161;28;20109;-74
2023/03/03 13:19:00;;;;;;;1.73;0.73;;;;;;;;;;4981041;28;20041;-74
2023/03/03 13:21:28;;;;;;;2.08;1.20;;;;;;;;;;4983283;28;20121;-74
2023/03/03 13:23:58;;;;;;;1.20;1.10;;;;;;;;;;4984054;28;20113;-74
2023/03/03 13:26:39;;;;;;;1.30;0.85;;;;;;;;;;4981382;28;20449;-74
2023/03/03 13:29:14;;;;;;;4.38;1.30;;;;;;;;;;4991038;28;20109;-73
2023/03/03 13:31:46;;;;;;;1.63;1.13;;;;;;;;;;4985459;28;20117;-73
2023/03/03 13:34:39;;;;;;;1.92;1.23;;;;;;;;;;4988870;28;20084;-73
2023/03/03 13:37:07;;;;;;;2.15;1.25;;;;;;;;;;4966045;28;20030;-74
2023/03/03 13:39:37;;;;;;;1.67;0.90;;;;;;;;;;4989945;28;20092;-73
2023/03/03 13:42:12;;;;;;;2.13;1.02;;;;;;;;;;4990566;28;20429;-74
2023/03/03 13:44:44;;;;;;;1.42;1.00;;;;;;;;;;4990681;28;20489;-74
2023/03/03 13:47:27;;;;;;;2.17;1.00;;;;;;;;;;4971824;28;20037;-74
2023/03/03 13:49:53;;;;;;;2.28;1.00;;;;;;;;;;4977567;28;20026;-74
2023/03/03 13:52:26;;;;;;;1.70;0.93;;;;;;;;;;4983845;28;20539;-74
2023/03/03 13:55:10;;;;;;;1.75;0.95;;;;;;;;;;4978598;28;20061;-74
2023/03/03 13:57:44;;;;;;;1.90;1.10;;;;;;;;;;4975743;28;20442;-74
2023/03/03 14:00:15;;;;;;;1.80;1.13;;;;;;;;;;4982452;28;20034;-74
2023/03/03 14:02:55;;;;;;;3.13;0.98;;;;;;;;;;4979671;28;20039;-74
2023/03/03 14:05:38;;;;;;;1.20;0.85;;;;;;;;;;4984306;28;20027;-74
2023/03/03 14:08:42;;;;;;;;;;;;;;;;;;;;;
2023/03/03 14:11:20;;;;;;;2.40;0.93;;;;;;;;;;4973826;28;20045;-76
2023/03/03 14:13:57;;;;;;;2.08;1.00;;;;;;;;;;4985119;28;20084;-74
2023/03/03 14:16:41;;;;;;;2.40;1.15;;;;;;;;;;4987969;28;20023;-74
2023/03/03 14:19:16;;;;;;;2.35;1.08;;;;;;;;;;4984926;28;20018;-74
2023/03/03 14:21:42;;;;;;;4.13;1.02;;;;;;;;;;4989271;28;20037;-74
2023/03/03 14:24:16;;;;;;;0.85;0.77;;;;;;;;;;4984258;28;20038;-74
2023/03/03 14:26:52;;;;;;;1.20;1.10;;;;;;;;;;4986211;28;20034;-74
2023/03/03 14:29:20;;;;;;;1.83;1.15;;;;;;;;;;4988608;28;20707;-74
2023/03/03 14:31:46;;;;;;;2.72;0.95;;;;;;;;;;4988455;28;20034;-75
2023/03/03 14:34:30;;;;;;;3.53;1.08;;;;;;;;;;4986106;28;20037;-75
2023/03/03 14:37:20;;;;;;;2.33;1.00;;;;;;;;;;4982045;28;20027;-75
2023/03/03 14:39:54;;;;;;;3.65;0.80;;;;;;;;;;4983004;28;20034;-74
2023/03/03 14:42:32;;;;;;;1.85;1.17;;;;;;;;;;4989564;28;20034;-76
2023/03/03 14:45:03;;;;;;;1.70;0.98;;;;;;;;;;4988983;28;20026;-74
2023/03/03 14:47:29;;;;;;;;;;;;;;;;;;4990214;28;20026;-74
2023/03/03 14:49:58;;;;;;;0.73;0.60;;;;;;;;;;4987221;28;20559;-75
2023/03/03 14:52:29;;;;;;;0.70;0.70;;;;;;;;;;4989208;28;20096;-74
2023/03/03 14:54:57;;;;;;;1.92;0.88;;;;;;;;;;4990133;28;20030;-74
2023/03/03 14:57:44;;;;;;;1.55;0.98;;;;;;;;;;4988352;28;20026;-75
2023/03/03 15:00:15;;;;;;;1.02;0.93;;;;;;;;;;4982702;28;20041;-75
2023/03/03 15:02:57;;;;;;;1.42;1.10;;;;;;;;;;4986324;28;20030;-74
2023/03/03 15:05:24;;;;;;;1.75;1.05;;;;;;;;;;4984026;28;20047;-74
2023/03/03 15:08:07;;;;;;;1.27;1.02;;;;;;;;;;4986652;28;20084;-75
2023/03/03 15:10:33;;;;;;;2.13;1.10;;;;;;;;;;4984705;28;20054;-75
2023/03/03 15:13:09;;;;;;;1.25;0.90;;;;;;;;;;4988316;28;20089;-74
2023/03/03 15:15:46;;;;;;;6.22;1.13;;;;;;;;;;4982885;28;20050;-74